sensor_id;sensor_type;location;lat;lon;timestamp;P1;durP1;ratioP1;P2;durP2;ratioP2
57635;SDS011;43465;50.728;4.160;2023-04-25T00:02:02;12.05;;;5.55;;
57635;SDS011;43465;50.728;4.160;2023-04-25T00:04:28;15.98;;;5.55;;
57635;SDS011;43465;50.728;4.160;2023-04-25T00:06:54;10.65;;;5.40;;
57635;SDS011;43465;50.728;4.160;2023-04-25T00:09:20;12.98;;;5.30;;
57635;SDS011;43465;50.728;4.160;2023-04-25T00:11:49;13.88;;;5.88;;
57635;SDS011;43465;50.728;4.160;2023-04-25T00:14:15;11.32;;;5.60;;
57635;SDS011;43465;50.728;4.160;2023-04-25T00:16:41;12.95;;;5.88;;
57635;SDS011;43465;50.728;4.160;2023-04-25T00:19:08;17.42;;;6.00;;
57635;SDS011;43465;50.728;4.160;2023-04-25T00:21:34;12.52;;;5.93;;
57635;SDS011;43465;50.728;4.160;2023-04-25T00:24:02;17.20;;;5.72;;
57635;SDS011;43465;50.728;4.160;2023-04-25T00:26:28;17.38;;;6.15;;
57635;SDS011;43465;50.728;4.160;2023-04-25T00:28:54;11.77;;;5.07;;
57635;SDS011;43465;50.728;4.160;2023-04-25T00:31:20;12.20;;;5.60;;
57635;SDS011;43465;50.728;4.160;2023-04-25T00:33:46;14.27;;;5.65;;
57635;SDS011;43465;50.728;4.160;2023-04-25T00:36:12;17.75;;;5.45;;
57635;SDS011;43465;50.728;4.160;2023-04-25T00:38:38;16.33;;;5.97;;
57635;SDS011;43465;50.728;4.160;2023-04-25T00:41:07;12.15;;;6.20;;
57635;SDS011;43465;50.728;4.160;2023-04-25T00:43:33;15.15;;;5.38;;
57635;SDS011;43465;50.728;4.160;2023-04-25T00:46:01;18.30;;;5.78;;
57635;SDS011;43465;50.728;4.160;2023-04-25T00:48:26;17.52;;;5.60;;
57635;SDS011;43465;50.728;4.160;2023-04-25T00:50:53;18.98;;;6.00;;
57635;SDS011;43465;50.728;4.160;2023-04-25T00:53:20;17.55;;;4.93;;
57635;SDS011;43465;50.728;4.160;2023-04-25T00:55:47;16.25;;;5.78;;
57635;SDS011;43465;50.728;4.160;2023-04-25T00:58:13;15.55;;;5.45;;
57635;SDS011;43465;50.728;4.160;2023-04-25T01:00:39;13.75;;;5.47;;
57635;SDS011;43465;50.728;4.160;2023-04-25T01:03:06;16.95;;;5.45;;
57635;SDS011;43465;50.728;4.160;2023-04-25T01:05:32;15.23;;;5.13;;
57635;SDS011;43465;50.728;4.160;2023-04-25T01:07:58;20.00;;;5.60;;
57635;SDS011;43465;50.728;4.160;2023-04-25T01:10:24;14.60;;;5.70;;
57635;SDS011;43465;50.728;4.160;2023-04-25T01:12:50;20.48;;;5.85;;
57635;SDS011;43465;50.728;4.160;2023-04-25T01:15:15;18.13;;;5.95;;
57635;SDS011;43465;50.728;4.160;2023-04-25T01:17:41;18.40;;;5.78;;
57635;SDS011;43465;50.728;4.160;2023-04-25T01:20:09;19.45;;;6.22;;
57635;SDS011;43465;50.728;4.160;2023-04-25T01:22:36;17.38;;;5.93;;
57635;SDS011;43465;50.728;4.160;2023-04-25T01:25:03;20.13;;;6.55;;
57635;SDS011;43465;50.728;4.160;2023-04-25T01:27:29;19.02;;;5.68;;
57635;SDS011;43465;50.728;4.160;2023-04-25T01:29:55;20.55;;;5.53;;
57635;SDS011;43465;50.728;4.160;2023-04-25T01:32:22;19.38;;;5.80;;
57635;SDS011;43465;50.728;4.160;2023-04-25T01:34:48;19.50;;;6.15;;
57635;SDS011;43465;50.728;4.160;2023-04-25T01:37:14;15.52;;;5.80;;
57635;SDS011;43465;50.728;4.160;2023-04-25T01:39:39;18.85;;;5.65;;
57635;SDS011;43465;50.728;4.160;2023-04-25T01:42:06;15.18;;;5.57;;
57635;SDS011;43465;50.728;4.160;2023-04-25T01:44:31;20.45;;;6.07;;
57635;SDS011;43465;50.728;4.160;2023-04-25T01:46:57;26.08;;;6.07;;
57635;SDS011;43465;50.728;4.160;2023-04-25T01:49:23;19.80;;;5.72;;
57635;SDS011;43465;50.728;4.160;2023-04-25T01:51:48;15.63;;;6.00;;
57635;SDS011;43465;50.728;4.160;2023-04-25T01:54:14;25.17;;;7.10;;
57635;SDS011;43465;50.728;4.160;2023-04-25T01:56:40;19.48;;;5.93;;
57635;SDS011;43465;50.728;4.160;2023-04-25T01:59:06;18.65;;;6.30;;
57635;SDS011;43465;50.728;4.160;2023-04-25T02:01:32;23.55;;;7.20;;
57635;SDS011;43465;50.728;4.160;2023-04-25T02:03:58;19.10;;;6.47;;
57635;SDS011;43465;50.728;4.160;2023-04-25T02:06:24;20.20;;;5.80;;
57635;SDS011;43465;50.728;4.160;2023-04-25T02:08:50;18.50;;;6.20;;
57635;SDS011;43465;50.728;4.160;2023-04-25T02:11:16;17.17;;;6.43;;
57635;SDS011;43465;50.728;4.160;2023-04-25T02:13:41;17.15;;;5.88;;
57635;SDS011;43465;50.728;4.160;2023-04-25T02:16:07;23.27;;;6.03;;
57635;SDS011;43465;50.728;4.160;2023-04-25T02:18:33;21.80;;;6.38;;
57635;SDS011;43465;50.728;4.160;2023-04-25T02:20:59;20.23;;;6.28;;
57635;SDS011;43465;50.728;4.160;2023-04-25T02:23:26;15.38;;;5.90;;
57635;SDS011;43465;50.728;4.160;2023-04-25T02:25:51;15.88;;;6.30;;
57635;SDS011;43465;50.728;4.160;2023-04-25T02:28:17;15.48;;;6.10;;
57635;SDS011;43465;50.728;4.160;2023-04-25T02:30:43;16.48;;;6.13;;
57635;SDS011;43465;50.728;4.160;2023-04-25T02:33:09;16.98;;;6.95;;
57635;SDS011;43465;50.728;4.160;2023-04-25T02:35:35;15.02;;;6.40;;
57635;SDS011;43465;50.728;4.160;2023-04-25T02:38:00;18.67;;;5.80;;
57635;SDS011;43465;50.728;4.160;2023-04-25T02:40:27;21.15;;;6.38;;
57635;SDS011;43465;50.728;4.160;2023-04-25T02:42:52;12.70;;;5.78;;
57635;SDS011;43465;50.728;4.160;2023-04-25T02:45:18;20.25;;;6.28;;
57635;SDS011;43465;50.728;4.160;2023-04-25T02:47:44;13.40;;;5.55;;
57635;SDS011;43465;50.728;4.160;2023-04-25T02:50:10;15.05;;;5.63;;
57635;SDS011;43465;50.728;4.160;2023-04-25T02:52:36;15.77;;;6.10;;
57635;SDS011;43465;50.728;4.160;2023-04-25T02:55:01;22.52;;;7.07;;
57635;SDS011;43465;50.728;4.160;2023-04-25T02:57:27;13.93;;;5.97;;
57635;SDS011;43465;50.728;4.160;2023-04-25T02:59:53;16.02;;;6.47;;
57635;SDS011;43465;50.728;4.160;2023-04-25T03:02:19;19.52;;;6.63;;
57635;SDS011;43465;50.728;4.160;2023-04-25T03:04:44;16.60;;;6.35;;
57635;SDS011;43465;50.728;4.160;2023-04-25T03:07:11;16.65;;;7.28;;
57635;SDS011;43465;50.728;4.160;2023-04-25T03:09:36;14.48;;;6.45;;
57635;SDS011;43465;50.728;4.160;2023-04-25T03:12:02;15.60;;;6.85;;
57635;SDS011;43465;50.728;4.160;2023-04-25T03:14:28;17.83;;;7.20;;
57635;SDS011;43465;50.728;4.160;2023-04-25T03:16:53;18.27;;;7.30;;
57635;SDS011;43465;50.728;4.160;2023-04-25T03:19:19;22.85;;;8.32;;
57635;SDS011;43465;50.728;4.160;2023-04-25T03:21:45;18.48;;;7.45;;
57635;SDS011;43465;50.728;4.160;2023-04-25T03:24:11;16.92;;;7.15;;
57635;SDS011;43465;50.728;4.160;2023-04-25T03:26:36;24.65;;;7.45;;
57635;SDS011;43465;50.728;4.160;2023-04-25T03:29:02;18.25;;;7.07;;
57635;SDS011;43465;50.728;4.160;2023-04-25T03:31:28;22.70;;;7.25;;
57635;SDS011;43465;50.728;4.160;2023-04-25T03:33:53;17.15;;;7.28;;
57635;SDS011;43465;50.728;4.160;2023-04-25T03:36:19;21.38;;;7.85;;
57635;SDS011;43465;50.728;4.160;2023-04-25T03:38:45;18.52;;;7.47;;
57635;SDS011;43465;50.728;4.160;2023-04-25T03:41:10;23.60;;;7.70;;
57635;SDS011;43465;50.728;4.160;2023-04-25T03:43:36;21.67;;;7.25;;
57635;SDS011;43465;50.728;4.160;2023-04-25T03:46:02;19.25;;;6.75;;
57635;SDS011;43465;50.728;4.160;2023-04-25T03:48:27;17.83;;;7.07;;
57635;SDS011;43465;50.728;4.160;2023-04-25T03:50:53;20.13;;;6.78;;
57635;SDS011;43465;50.728;4.160;2023-04-25T03:53:19;22.23;;;6.78;;
57635;SDS011;43465;50.728;4.160;2023-04-25T03:55:45;25.55;;;7.20;;
57635;SDS011;43465;50.728;4.160;2023-04-25T03:58:10;23.63;;;6.45;;
57635;SDS011;43465;50.728;4.160;2023-04-25T04:00:36;19.15;;;5.78;;
57635;SDS011;43465;50.728;4.160;2023-04-25T04:03:02;20.40;;;6.25;;
57635;SDS011;43465;50.728;4.160;2023-04-25T04:05:28;18.17;;;6.03;;
57635;SDS011;43465;50.728;4.160;2023-04-25T04:07:54;20.63;;;6.30;;
57635;SDS011;43465;50.728;4.160;2023-04-25T04:10:20;22.00;;;5.95;;
57635;SDS011;43465;50.728;4.160;2023-04-25T04:12:46;28.10;;;6.97;;
57635;SDS011;43465;50.728;4.160;2023-04-25T04:15:12;25.23;;;6.15;;
57635;SDS011;43465;50.728;4.160;2023-04-25T04:17:37;17.63;;;5.63;;
57635;SDS011;43465;50.728;4.160;2023-04-25T04:20:03;17.80;;;5.55;;
57635;SDS011;43465;50.728;4.160;2023-04-25T04:22:31;17.05;;;5.18;;
57635;SDS011;43465;50.728;4.160;2023-04-25T04:24:57;20.05;;;5.18;;
57635;SDS011;43465;50.728;4.160;2023-04-25T04:27:22;14.95;;;5.32;;
57635;SDS011;43465;50.728;4.160;2023-04-25T04:29:48;24.88;;;5.65;;
57635;SDS011;43465;50.728;4.160;2023-04-25T04:32:16;20.85;;;5.22;;
57635;SDS011;43465;50.728;4.160;2023-04-25T04:34:42;19.52;;;5.43;;
57635;SDS011;43465;50.728;4.160;2023-04-25T04:37:08;17.75;;;5.50;;
57635;SDS011;43465;50.728;4.160;2023-04-25T04:39:34;20.25;;;5.75;;
57635;SDS011;43465;50.728;4.160;2023-04-25T04:42:00;18.52;;;5.95;;
57635;SDS011;43465;50.728;4.160;2023-04-25T04:44:27;27.75;;;6.03;;
57635;SDS011;43465;50.728;4.160;2023-04-25T04:46:53;22.90;;;6.65;;
57635;SDS011;43465;50.728;4.160;2023-04-25T04:49:19;16.80;;;5.72;;
57635;SDS011;43465;50.728;4.160;2023-04-25T04:51:45;23.00;;;6.63;;
57635;SDS011;43465;50.728;4.160;2023-04-25T04:54:11;20.52;;;6.00;;
57635;SDS011;43465;50.728;4.160;2023-04-25T04:56:37;25.40;;;6.22;;
57635;SDS011;43465;50.728;4.160;2023-04-25T04:59:03;22.35;;;5.85;;
57635;SDS011;43465;50.728;4.160;2023-04-25T05:01:29;23.48;;;5.68;;
57635;SDS011;43465;50.728;4.160;2023-04-25T05:03:57;22.33;;;5.80;;
57635;SDS011;43465;50.728;4.160;2023-04-25T05:06:26;26.10;;;6.55;;
57635;SDS011;43465;50.728;4.160;2023-04-25T05:08:54;21.85;;;6.13;;
57635;SDS011;43465;50.728;4.160;2023-04-25T05:11:20;23.80;;;6.68;;
57635;SDS011;43465;50.728;4.160;2023-04-25T05:13:46;22.80;;;6.68;;
57635;SDS011;43465;50.728;4.160;2023-04-25T05:16:12;27.98;;;6.70;;
57635;SDS011;43465;50.728;4.160;2023-04-25T05:18:38;21.60;;;7.20;;
57635;SDS011;43465;50.728;4.160;2023-04-25T05:21:04;20.17;;;6.00;;
57635;SDS011;43465;50.728;4.160;2023-04-25T05:23:31;21.17;;;6.28;;
57635;SDS011;43465;50.728;4.160;2023-04-25T05:25:57;14.77;;;6.70;;
57635;SDS011;43465;50.728;4.160;2023-04-25T05:28:23;19.60;;;6.50;;
57635;SDS011;43465;50.728;4.160;2023-04-25T05:30:49;21.30;;;6.70;;
57635;SDS011;43465;50.728;4.160;2023-04-25T05:33:15;21.63;;;5.88;;
57635;SDS011;43465;50.728;4.160;2023-04-25T05:35:41;12.90;;;5.70;;
57635;SDS011;43465;50.728;4.160;2023-04-25T05:38:07;17.85;;;6.43;;
57635;SDS011;43465;50.728;4.160;2023-04-25T05:40:33;21.42;;;6.75;;
57635;SDS011;43465;50.728;4.160;2023-04-25T05:42:58;18.45;;;6.75;;
57635;SDS011;43465;50.728;4.160;2023-04-25T05:45:24;22.60;;;7.35;;
57635;SDS011;43465;50.728;4.160;2023-04-25T05:47:50;15.70;;;5.57;;
57635;SDS011;43465;50.728;4.160;2023-04-25T05:50:15;15.38;;;6.00;;
57635;SDS011;43465;50.728;4.160;2023-04-25T05:52:41;19.38;;;6.07;;
57635;SDS011;43465;50.728;4.160;2023-04-25T05:55:07;19.05;;;5.50;;
57635;SDS011;43465;50.728;4.160;2023-04-25T05:57:33;13.20;;;4.78;;
57635;SDS011;43465;50.728;4.160;2023-04-25T05:59:58;12.38;;;4.93;;
57635;SDS011;43465;50.728;4.160;2023-04-25T06:02:24;14.55;;;4.78;;
57635;SDS011;43465;50.728;4.160;2023-04-25T06:04:50;14.15;;;4.35;;
57635;SDS011;43465;50.728;4.160;2023-04-25T06:07:16;12.38;;;5.05;;
57635;SDS011;43465;50.728;4.160;2023-04-25T06:09:43;16.25;;;4.85;;
57635;SDS011;43465;50.728;4.160;2023-04-25T06:12:09;11.88;;;4.40;;
57635;SDS011;43465;50.728;4.160;2023-04-25T06:14:34;11.45;;;4.53;;
57635;SDS011;43465;50.728;4.160;2023-04-25T06:17:00;17.92;;;4.78;;
57635;SDS011;43465;50.728;4.160;2023-04-25T06:19:32;15.13;;;4.68;;
57635;SDS011;43465;50.728;4.160;2023-04-25T06:21:58;13.18;;;4.18;;
57635;SDS011;43465;50.728;4.160;2023-04-25T06:24:23;13.18;;;4.20;;
57635;SDS011;43465;50.728;4.160;2023-04-25T06:26:49;13.00;;;4.75;;
57635;SDS011;43465;50.728;4.160;2023-04-25T06:29:15;13.70;;;4.72;;
57635;SDS011;43465;50.728;4.160;2023-04-25T06:31:40;12.73;;;4.25;;
57635;SDS011;43465;50.728;4.160;2023-04-25T06:34:06;14.10;;;4.28;;
57635;SDS011;43465;50.728;4.160;2023-04-25T06:36:32;12.98;;;4.45;;
57635;SDS011;43465;50.728;4.160;2023-04-25T06:38:58;13.70;;;4.30;;
57635;SDS011;43465;50.728;4.160;2023-04-25T06:41:23;10.20;;;4.55;;
57635;SDS011;43465;50.728;4.160;2023-04-25T06:43:49;11.90;;;4.35;;
57635;SDS011;43465;50.728;4.160;2023-04-25T06:46:15;9.70;;;4.00;;
57635;SDS011;43465;50.728;4.160;2023-04-25T06:48:40;12.52;;;4.00;;
57635;SDS011;43465;50.728;4.160;2023-04-25T06:51:06;20.73;;;7.53;;
57635;SDS011;43465;50.728;4.160;2023-04-25T06:53:32;16.40;;;4.43;;
57635;SDS011;43465;50.728;4.160;2023-04-25T06:55:57;11.00;;;3.85;;
57635;SDS011;43465;50.728;4.160;2023-04-25T06:58:23;12.10;;;4.35;;
57635;SDS011;43465;50.728;4.160;2023-04-25T07:00:49;11.82;;;4.20;;
57635;SDS011;43465;50.728;4.160;2023-04-25T07:03:14;14.98;;;3.88;;
57635;SDS011;43465;50.728;4.160;2023-04-25T07:05:40;23.65;;;4.80;;
57635;SDS011;43465;50.728;4.160;2023-04-25T07:08:06;14.77;;;4.22;;
57635;SDS011;43465;50.728;4.160;2023-04-25T07:10:32;13.60;;;4.10;;
57635;SDS011;43465;50.728;4.160;2023-04-25T07:12:57;23.35;;;4.22;;
57635;SDS011;43465;50.728;4.160;2023-04-25T07:15:23;17.30;;;3.92;;
57635;SDS011;43465;50.728;4.160;2023-04-25T07:17:48;13.13;;;3.90;;
57635;SDS011;43465;50.728;4.160;2023-04-25T07:20:14;11.73;;;3.80;;
57635;SDS011;43465;50.728;4.160;2023-04-25T07:22:41;17.75;;;4.28;;
57635;SDS011;43465;50.728;4.160;2023-04-25T07:25:07;17.80;;;4.20;;
57635;SDS011;43465;50.728;4.160;2023-04-25T07:27:33;11.05;;;3.58;;
57635;SDS011;43465;50.728;4.160;2023-04-25T07:29:59;16.00;;;4.20;;
57635;SDS011;43465;50.728;4.160;2023-04-25T07:32:25;15.13;;;3.60;;
57635;SDS011;43465;50.728;4.160;2023-04-25T07:34:51;17.75;;;3.55;;
57635;SDS011;43465;50.728;4.160;2023-04-25T07:37:17;13.38;;;3.47;;
57635;SDS011;43465;50.728;4.160;2023-04-25T07:39:43;13.38;;;3.95;;
57635;SDS011;43465;50.728;4.160;2023-04-25T07:42:11;11.50;;;3.40;;
57635;SDS011;43465;50.728;4.160;2023-04-25T07:44:36;11.90;;;3.58;;
57635;SDS011;43465;50.728;4.160;2023-04-25T07:47:08;7.82;;;3.10;;
57635;SDS011;43465;50.728;4.160;2023-04-25T07:49:35;14.30;;;3.97;;
57635;SDS011;43465;50.728;4.160;2023-04-25T07:52:02;16.02;;;3.40;;
57635;SDS011;43465;50.728;4.160;2023-04-25T07:54:28;16.40;;;3.97;;
57635;SDS011;43465;50.728;4.160;2023-04-25T07:56:54;11.50;;;3.58;;
57635;SDS011;43465;50.728;4.160;2023-04-25T07:59:21;18.98;;;4.57;;
57635;SDS011;43465;50.728;4.160;2023-04-25T08:01:47;16.98;;;3.70;;
57635;SDS011;43465;50.728;4.160;2023-04-25T08:04:12;14.45;;;3.60;;
57635;SDS011;43465;50.728;4.160;2023-04-25T08:06:38;17.58;;;3.53;;
57635;SDS011;43465;50.728;4.160;2023-04-25T08:09:05;13.18;;;3.08;;
57635;SDS011;43465;50.728;4.160;2023-04-25T08:11:31;14.77;;;3.08;;
57635;SDS011;43465;50.728;4.160;2023-04-25T08:13:57;13.80;;;3.28;;
57635;SDS011;43465;50.728;4.160;2023-04-25T08:16:22;9.85;;;3.05;;
57635;SDS011;43465;50.728;4.160;2023-04-25T08:18:49;12.70;;;3.22;;
57635;SDS011;43465;50.728;4.160;2023-04-25T08:21:15;12.50;;;2.88;;
57635;SDS011;43465;50.728;4.160;2023-04-25T08:23:41;12.40;;;2.88;;
57635;SDS011;43465;50.728;4.160;2023-04-25T08:26:07;12.98;;;3.33;;
57635;SDS011;43465;50.728;4.160;2023-04-25T08:28:32;14.90;;;2.97;;
57635;SDS011;43465;50.728;4.160;2023-04-25T08:30:58;13.80;;;3.10;;
57635;SDS011;43465;50.728;4.160;2023-04-25T08:33:24;11.93;;;3.03;;
57635;SDS011;43465;50.728;4.160;2023-04-25T08:35:50;17.42;;;3.55;;
57635;SDS011;43465;50.728;4.160;2023-04-25T08:38:16;20.55;;;4.05;;
57635;SDS011;43465;50.728;4.160;2023-04-25T08:40:42;7.72;;;2.75;;
57635;SDS011;43465;50.728;4.160;2023-04-25T08:43:09;11.88;;;3.30;;
57635;SDS011;43465;50.728;4.160;2023-04-25T08:45:41;12.50;;;3.03;;
57635;SDS011;43465;50.728;4.160;2023-04-25T08:48:08;9.45;;;2.58;;
57635;SDS011;43465;50.728;4.160;2023-04-25T08:50:40;10.75;;;2.72;;
57635;SDS011;43465;50.728;4.160;2023-04-25T08:53:13;7.43;;;2.40;;
57635;SDS011;43465;50.728;4.160;2023-04-25T08:55:43;8.20;;;2.30;;
57635;SDS011;43465;50.728;4.160;2023-04-25T08:58:10;10.63;;;3.17;;
57635;SDS011;43465;50.728;4.160;2023-04-25T09:00:36;12.52;;;2.75;;
57635;SDS011;43465;50.728;4.160;2023-04-25T09:03:02;11.68;;;2.65;;
57635;SDS011;43465;50.728;4.160;2023-04-25T09:05:28;9.43;;;2.90;;
57635;SDS011;43465;50.728;4.160;2023-04-25T09:07:54;10.27;;;2.33;;
57635;SDS011;43465;50.728;4.160;2023-04-25T09:10:21;7.72;;;2.40;;
57635;SDS011;43465;50.728;4.160;2023-04-25T09:13:03;8.85;;;2.05;;
57635;SDS011;43465;50.728;4.160;2023-04-25T09:15:34;8.23;;;2.33;;
57635;SDS011;43465;50.728;4.160;2023-04-25T09:18:29;8.55;;;2.28;;
57635;SDS011;43465;50.728;4.160;2023-04-25T09:20:58;6.70;;;2.05;;
57635;SDS011;43465;50.728;4.160;2023-04-25T09:23:40;9.40;;;2.20;;
57635;SDS011;43465;50.728;4.160;2023-04-25T09:26:07;9.88;;;2.22;;
57635;SDS011;43465;50.728;4.160;2023-04-25T09:28:34;8.02;;;2.00;;
57635;SDS011;43465;50.728;4.160;2023-04-25T09:31:00;11.30;;;2.20;;
57635;SDS011;43465;50.728;4.160;2023-04-25T09:33:30;10.00;;;2.45;;
57635;SDS011;43465;50.728;4.160;2023-04-25T09:36:04;10.85;;;2.55;;
57635;SDS011;43465;50.728;4.160;2023-04-25T09:38:32;11.20;;;1.98;;
57635;SDS011;43465;50.728;4.160;2023-04-25T09:41:06;8.13;;;2.10;;
57635;SDS011;43465;50.728;4.160;2023-04-25T09:43:32;11.90;;;1.98;;
57635;SDS011;43465;50.728;4.160;2023-04-25T09:45:58;14.85;;;2.40;;
57635;SDS011;43465;50.728;4.160;2023-04-25T09:48:25;6.60;;;1.85;;
57635;SDS011;43465;50.728;4.160;2023-04-25T09:51:11;7.18;;;2.10;;
57635;SDS011;43465;50.728;4.160;2023-04-25T09:53:40;7.78;;;2.50;;
57635;SDS011;43465;50.728;4.160;2023-04-25T09:56:09;9.55;;;2.60;;
57635;SDS011;43465;50.728;4.160;2023-04-25T09:58:37;8.00;;;2.55;;
57635;SDS011;43465;50.728;4.160;2023-04-25T10:01:04;7.00;;;2.28;;
57635;SDS011;43465;50.728;4.160;2023-04-25T10:03:35;8.20;;;2.47;;
57635;SDS011;43465;50.728;4.160;2023-04-25T10:06:03;7.90;;;2.25;;
57635;SDS011;43465;50.728;4.160;2023-04-25T10:08:43;10.73;;;2.30;;
57635;SDS011;43465;50.728;4.160;2023-04-25T10:11:10;6.47;;;2.03;;
57635;SDS011;43465;50.728;4.160;2023-04-25T10:13:39;9.13;;;2.30;;
57635;SDS011;43465;50.728;4.160;2023-04-25T10:16:06;8.25;;;3.05;;
57635;SDS011;43465;50.728;4.160;2023-04-25T10:18:33;7.78;;;2.30;;
57635;SDS011;43465;50.728;4.160;2023-04-25T10:21:02;7.80;;;1.55;;
57635;SDS011;43465;50.728;4.160;2023-04-25T10:23:30;7.95;;;1.65;;
57635;SDS011;43465;50.728;4.160;2023-04-25T10:25:56;4.07;;;1.48;;
57635;SDS011;43465;50.728;4.160;2023-04-25T10:28:23;8.85;;;1.80;;
57635;SDS011;43465;50.728;4.160;2023-04-25T10:33:46;6.75;;;1.90;;
57635;SDS011;43465;50.728;4.160;2023-04-25T10:36:14;5.68;;;1.50;;
57635;SDS011;43465;50.728;4.160;2023-04-25T10:38:43;3.67;;;1.40;;
57635;SDS011;43465;50.728;4.160;2023-04-25T10:41:10;4.40;;;1.60;;
57635;SDS011;43465;50.728;4.160;2023-04-25T10:43:37;5.68;;;1.98;;
57635;SDS011;43465;50.728;4.160;2023-04-25T10:46:17;5.63;;;1.63;;
57635;SDS011;43465;50.728;4.160;2023-04-25T10:48:48;4.03;;;1.35;;
57635;SDS011;43465;50.728;4.160;2023-04-25T10:56:20;6.50;;;1.85;;
57635;SDS011;43465;50.728;4.160;2023-04-25T10:58:48;4.63;;;1.92;;
57635;SDS011;43465;50.728;4.160;2023-04-25T11:01:15;5.72;;;1.60;;
57635;SDS011;43465;50.728;4.160;2023-04-25T11:03:45;6.75;;;1.85;;
57635;SDS011;43465;50.728;4.160;2023-04-25T11:07:01;6.70;;;2.08;;
57635;SDS011;43465;50.728;4.160;2023-04-25T11:09:19;6.15;;;1.90;;
57635;SDS011;43465;50.728;4.160;2023-04-25T11:11:54;4.43;;;1.70;;
57635;SDS011;43465;50.728;4.160;2023-04-25T11:16:46;4.05;;;1.55;;
57635;SDS011;43465;50.728;4.160;2023-04-25T11:19:12;7.57;;;1.65;;
57635;SDS011;43465;50.728;4.160;2023-04-25T11:21:38;5.35;;;1.63;;
57635;SDS011;43465;50.728;4.160;2023-04-25T11:24:04;6.35;;;1.65;;
57635;SDS011;43465;50.728;4.160;2023-04-25T11:26:30;7.72;;;1.95;;
57635;SDS011;43465;50.728;4.160;2023-04-25T11:28:59;7.15;;;2.22;;
57635;SDS011;43465;50.728;4.160;2023-04-25T11:31:28;3.78;;;1.60;;
57635;SDS011;43465;50.728;4.160;2023-04-25T11:33:58;3.80;;;1.40;;
57635;SDS011;43465;50.728;4.160;2023-04-25T11:36:24;3.60;;;1.90;;
57635;SDS011;43465;50.728;4.160;2023-04-25T11:38:51;5.45;;;1.95;;
57635;SDS011;43465;50.728;4.160;2023-04-25T11:41:18;3.80;;;1.92;;
57635;SDS011;43465;50.728;4.160;2023-04-25T11:43:44;3.92;;;1.48;;
57635;SDS011;43465;50.728;4.160;2023-04-25T11:46:10;4.75;;;1.50;;
57635;SDS011;43465;50.728;4.160;2023-04-25T11:48:39;3.63;;;1.45;;
57635;SDS011;43465;50.728;4.160;2023-04-25T11:51:05;6.50;;;1.60;;
57635;SDS011;43465;50.728;4.160;2023-04-25T11:53:31;5.53;;;1.20;;
57635;SDS011;43465;50.728;4.160;2023-04-25T11:55:57;5.47;;;1.35;;
57635;SDS011;43465;50.728;4.160;2023-04-25T11:58:22;5.15;;;1.70;;
57635;SDS011;43465;50.728;4.160;2023-04-25T12:00:48;4.97;;;1.48;;
57635;SDS011;43465;50.728;4.160;2023-04-25T12:03:14;6.15;;;1.90;;
57635;SDS011;43465;50.728;4.160;2023-04-25T12:05:40;6.13;;;1.33;;
57635;SDS011;43465;50.728;4.160;2023-04-25T12:08:09;3.97;;;1.33;;
57635;SDS011;43465;50.728;4.160;2023-04-25T12:10:39;8.75;;;1.55;;
57635;SDS011;43465;50.728;4.160;2023-04-25T12:15:48;3.53;;;1.40;;
57635;SDS011;43465;50.728;4.160;2023-04-25T12:18:14;5.55;;;1.60;;
57635;SDS011;43465;50.728;4.160;2023-04-25T12:20:39;4.63;;;1.80;;
57635;SDS011;43465;50.728;4.160;2023-04-25T12:23:06;5.00;;;1.60;;
57635;SDS011;43465;50.728;4.160;2023-04-25T12:31:10;6.90;;;1.40;;
57635;SDS011;43465;50.728;4.160;2023-04-25T12:33:36;4.78;;;2.17;;
57635;SDS011;43465;50.728;4.160;2023-04-25T12:36:05;3.10;;;1.40;;
57635;SDS011;43465;50.728;4.160;2023-04-25T12:38:40;4.47;;;1.55;;
57635;SDS011;43465;50.728;4.160;2023-04-25T12:41:07;2.55;;;1.20;;
57635;SDS011;43465;50.728;4.160;2023-04-25T12:43:33;2.42;;;1.17;;
57635;SDS011;43465;50.728;4.160;2023-04-25T12:45:59;3.33;;;1.00;;
57635;SDS011;43465;50.728;4.160;2023-04-25T12:48:25;5.65;;;1.25;;
57635;SDS011;43465;50.728;4.160;2023-04-25T12:50:51;3.03;;;1.15;;
57635;SDS011;43465;50.728;4.160;2023-04-25T12:53:20;2.65;;;1.08;;
57635;SDS011;43465;50.728;4.160;2023-04-25T12:55:47;3.60;;;1.25;;
57635;SDS011;43465;50.728;4.160;2023-04-25T12:58:14;3.63;;;1.33;;
57635;SDS011;43465;50.728;4.160;2023-04-25T13:00:40;6.97;;;1.80;;
57635;SDS011;43465;50.728;4.160;2023-04-25T13:03:07;6.22;;;1.40;;
57635;SDS011;43465;50.728;4.160;2023-04-25T13:05:33;7.20;;;1.80;;
57635;SDS011;43465;50.728;4.160;2023-04-25T13:07:59;5.82;;;1.90;;
57635;SDS011;43465;50.728;4.160;2023-04-25T13:10:25;4.00;;;2.00;;
57635;SDS011;43465;50.728;4.160;2023-04-25T13:12:51;3.30;;;1.80;;
57635;SDS011;43465;50.728;4.160;2023-04-25T13:15:16;5.63;;;2.05;;
57635;SDS011;43465;50.728;4.160;2023-04-25T13:17:42;3.75;;;1.70;;
57635;SDS011;43465;50.728;4.160;2023-04-25T13:20:08;4.95;;;2.03;;
57635;SDS011;43465;50.728;4.160;2023-04-25T13:22:35;5.22;;;1.90;;
57635;SDS011;43465;50.728;4.160;2023-04-25T13:25:03;7.20;;;1.67;;
57635;SDS011;43465;50.728;4.160;2023-04-25T13:27:29;5.43;;;2.00;;
57635;SDS011;43465;50.728;4.160;2023-04-25T13:29:57;3.70;;;1.80;;
57635;SDS011;43465;50.728;4.160;2023-04-25T13:32:23;4.05;;;1.60;;
57635;SDS011;43465;50.728;4.160;2023-04-25T13:34:49;4.15;;;1.80;;
57635;SDS011;43465;50.728;4.160;2023-04-25T13:37:16;7.03;;;2.00;;
57635;SDS011;43465;50.728;4.160;2023-04-25T13:39:41;5.00;;;2.10;;
57635;SDS011;43465;50.728;4.160;2023-04-25T13:42:07;4.15;;;1.60;;
57635;SDS011;43465;50.728;4.160;2023-04-25T13:44:33;3.42;;;1.80;;
57635;SDS011;43465;50.728;4.160;2023-04-25T13:46:58;5.30;;;1.73;;
57635;SDS011;43465;50.728;4.160;2023-04-25T13:49:25;4.20;;;1.90;;
57635;SDS011;43465;50.728;4.160;2023-04-25T13:51:51;5.55;;;1.90;;
57635;SDS011;43465;50.728;4.160;2023-04-25T13:54:17;4.13;;;1.90;;
57635;SDS011;43465;50.728;4.160;2023-04-25T13:56:42;3.33;;;1.42;;
57635;SDS011;43465;50.728;4.160;2023-04-25T13:59:08;8.02;;;3.35;;
57635;SDS011;43465;50.728;4.160;2023-04-25T14:01:34;3.88;;;1.55;;
57635;SDS011;43465;50.728;4.160;2023-04-25T14:04:01;3.08;;;1.30;;
57635;SDS011;43465;50.728;4.160;2023-04-25T14:06:28;5.05;;;1.60;;
57635;SDS011;43465;50.728;4.160;2023-04-25T14:08:55;4.72;;;1.40;;
57635;SDS011;43465;50.728;4.160;2023-04-25T14:11:21;2.65;;;1.55;;
57635;SDS011;43465;50.728;4.160;2023-04-25T14:13:47;6.57;;;1.73;;
57635;SDS011;43465;50.728;4.160;2023-04-25T14:16:14;5.70;;;1.50;;
57635;SDS011;43465;50.728;4.160;2023-04-25T14:18:40;6.40;;;2.00;;
57635;SDS011;43465;50.728;4.160;2023-04-25T14:21:06;3.08;;;1.50;;
57635;SDS011;43465;50.728;4.160;2023-04-25T14:23:32;4.72;;;1.52;;
57635;SDS011;43465;50.728;4.160;2023-04-25T14:25:57;3.92;;;1.50;;
57635;SDS011;43465;50.728;4.160;2023-04-25T14:28:23;5.88;;;2.10;;
57635;SDS011;43465;50.728;4.160;2023-04-25T14:30:49;6.07;;;1.77;;
57635;SDS011;43465;50.728;4.160;2023-04-25T14:33:15;5.35;;;1.67;;
57635;SDS011;43465;50.728;4.160;2023-04-25T14:35:40;7.88;;;1.90;;
57635;SDS011;43465;50.728;4.160;2023-04-25T14:38:06;7.43;;;1.90;;
57635;SDS011;43465;50.728;4.160;2023-04-25T14:40:32;7.32;;;2.30;;
57635;SDS011;43465;50.728;4.160;2023-04-25T14:42:58;3.45;;;1.63;;
57635;SDS011;43465;50.728;4.160;2023-04-25T14:45:24;7.45;;;1.95;;
57635;SDS011;43465;50.728;4.160;2023-04-25T14:47:50;5.40;;;2.10;;
57635;SDS011;43465;50.728;4.160;2023-04-25T14:50:17;4.00;;;1.77;;
57635;SDS011;43465;50.728;4.160;2023-04-25T14:52:43;7.13;;;1.70;;
57635;SDS011;43465;50.728;4.160;2023-04-25T14:55:10;6.55;;;1.90;;